createdAt,value
2022-11-28T00:01:30.837Z,83.02
2022-11-28T00:06:28.845Z,82.79
2022-11-28T00:11:26.797Z,83.06
2022-11-28T00:16:26.256Z,83.20
2022-11-28T00:21:24.258Z,82.58
2022-11-28T00:26:23.117Z,83.01
2022-11-28T00:31:21.776Z,83.77
2022-11-28T00:36:21.959Z,82.87
2022-11-28T00:41:21.017Z,83.05
2022-11-28T00:46:19.740Z,82.85
2022-11-28T00:51:18.838Z,82.86
2022-11-28T00:56:19.825Z,82.76
2022-11-28T01:01:18.681Z,82.41
2022-11-28T01:06:22.087Z,82.90
2022-11-28T01:11:23.111Z,83.79
2022-11-28T01:16:21.169Z,83.15
2022-11-28T01:21:19.805Z,83.87
2022-11-28T01:26:18.572Z,84.96
2022-11-28T01:31:18.995Z,85.31
2022-11-28T01:36:17.881Z,84.90
2022-11-28T01:41:17.211Z,83.94
2022-11-28T01:46:15.211Z,83.72
2022-11-28T01:51:14.897Z,84.40
2022-11-28T01:56:15.989Z,84.09
2022-11-28T02:01:14.557Z,84.60
2022-11-28T02:06:14.295Z,84.81
2022-11-28T02:11:34.208Z,84.94
2022-11-28T02:16:40.353Z,85.22
2022-11-28T02:21:51.181Z,83.36
2022-11-28T02:26:59.931Z,82.91
2022-11-28T02:32:16.281Z,81.98
2022-11-28T02:37:17.005Z,81.14
2022-11-28T02:42:19.508Z,81.41
2022-11-28T02:47:22.643Z,81.34
2022-11-28T02:52:23.224Z,81.36
2022-11-28T02:57:21.077Z,80.12
2022-11-28T03:02:24.823Z,80.15
2022-11-28T03:07:30.226Z,80.52
2022-11-28T03:12:33.207Z,80.00
2022-11-28T03:17:39.349Z,79.73
2022-11-28T03:22:41.993Z,78.82
2022-11-28T03:27:42.307Z,78.69
2022-11-28T03:32:43.155Z,78.99
2022-11-28T03:37:44.315Z,78.80
2022-11-28T03:42:43.780Z,79.12
2022-11-28T03:47:44.706Z,78.63
2022-11-28T03:52:44.844Z,78.58
2022-11-28T03:57:45.707Z,78.55
2022-11-28T04:02:49.924Z,77.83
2022-11-28T04:07:49.953Z,78.21
2022-11-28T04:12:52.100Z,77.72
2022-11-28T04:17:55.470Z,78.11
2022-11-28T04:22:56.413Z,78.09
2022-11-28T04:27:57.961Z,78.09
2022-11-28T04:32:59.860Z,78.34
2022-11-28T04:37:58.750Z,77.76
2022-11-28T04:42:59.184Z,77.39
2022-11-28T04:47:59.014Z,78.18
2022-11-28T04:53:01.656Z,78.60
2022-11-28T04:58:03.932Z,78.53
2022-11-28T05:03:04.131Z,78.01
2022-11-28T05:08:02.186Z,77.12
2022-11-28T05:13:00.170Z,76.69
2022-11-28T05:17:58.212Z,76.43
2022-11-28T05:22:57.530Z,76.35
2022-11-28T05:27:55.476Z,76.96
2022-11-28T05:32:53.455Z,76.41
2022-11-28T05:37:51.368Z,76.75
2022-11-28T05:42:50.696Z,76.82
2022-11-28T05:47:48.573Z,76.75
2022-11-28T05:52:46.445Z,77.11
2022-11-28T05:57:44.441Z,76.55
2022-11-28T06:02:44.039Z,76.64
2022-11-28T06:07:42.027Z,76.54
2022-11-28T06:12:39.916Z,76.70
2022-11-28T06:17:37.830Z,75.79
2022-11-28T06:22:37.083Z,75.90
2022-11-28T06:27:35.516Z,75.58
2022-11-28T06:32:33.717Z,75.39
2022-11-28T06:37:35.200Z,75.33
2022-11-28T06:42:35.857Z,74.99
2022-11-28T06:47:38.131Z,74.93
2022-11-28T06:52:36.299Z,74.82
2022-11-28T06:57:35.999Z,74.94
2022-11-28T07:02:34.142Z,74.96
2022-11-28T07:07:32.209Z,74.64
2022-11-28T07:12:30.163Z,75.24
2022-11-28T07:17:29.539Z,74.46
2022-11-28T07:22:27.429Z,75.22
2022-11-28T07:27:26.616Z,74.41
2022-11-28T07:32:24.726Z,74.48
2022-11-28T07:37:23.992Z,74.42
2022-11-28T07:42:21.912Z,73.68
2022-11-28T07:47:35.022Z,73.52
2022-11-28T07:52:34.412Z,72.34
2022-11-28T07:57:32.402Z,72.22
2022-11-28T08:02:32.680Z,73.46
2022-11-28T08:07:31.357Z,73.69
2022-11-28T08:12:31.800Z,74.72
2022-11-28T08:17:30.080Z,73.99
2022-11-28T08:22:29.292Z,73.95
2022-11-28T08:27:27.273Z,72.22
2022-11-28T08:32:26.666Z,73.70
2022-11-28T08:37:24.545Z,74.70
2022-11-28T08:42:22.772Z,73.93
2022-11-28T08:47:20.691Z,74.26
2022-11-28T08:52:20.455Z,75.75
2022-11-28T08:57:18.331Z,74.55
2022-11-28T09:02:16.186Z,74.79
2022-11-28T09:07:14.240Z,73.29
2022-11-28T09:12:13.747Z,72.00
2022-11-28T09:17:12.195Z,73.66
2022-11-28T09:22:10.378Z,71.70
2022-11-28T09:27:08.301Z,71.78
2022-11-28T09:32:08.133Z,69.55
2022-11-28T09:37:05.923Z,70.17
2022-11-28T09:42:09.719Z,69.46
2022-11-28T09:47:28.477Z,69.46
2022-11-28T09:52:29.954Z,68.23
2022-11-28T09:57:33.465Z,67.92
2022-11-28T10:02:36.600Z,68.54
2022-11-28T10:07:39.814Z,66.29
2022-11-28T10:12:43.230Z,63.29
2022-11-28T10:17:53.416Z,63.84
2022-11-28T10:22:53.159Z,63.38
2022-11-28T10:27:53.446Z,64.35
2022-11-28T10:32:59.133Z,66.70
2022-11-28T10:37:58.100Z,65.04
2022-11-28T10:42:59.225Z,64.90
2022-11-28T10:48:38.103Z,63.46
2022-11-28T10:53:34.021Z,61.36
2022-11-28T10:58:34.062Z,61.71
2022-11-28T11:03:35.939Z,61.90
2022-11-28T11:08:36.166Z,63.14
2022-11-28T11:13:35.703Z,62.35
2022-11-28T11:18:37.268Z,59.84
2022-11-28T11:23:38.457Z,62.55
2022-11-28T11:28:46.845Z,62.43
2022-11-28T11:33:46.449Z,64.31
2022-11-28T11:38:44.629Z,64.25
2022-11-28T11:43:42.681Z,64.41
2022-11-28T11:48:44.132Z,64.87
2022-11-28T11:53:43.367Z,64.38
2022-11-28T11:58:44.516Z,64.21
2022-11-28T12:03:47.426Z,64.12
2022-11-28T12:08:50.522Z,64.75
2022-11-28T12:13:50.078Z,66.28
2022-11-28T12:18:54.245Z,67.55
2022-11-28T12:24:02.488Z,67.42
2022-11-28T12:29:09.450Z,65.75
2022-11-28T12:34:14.592Z,65.43
2022-11-28T12:39:24.336Z,66.80
2022-11-28T12:44:30.261Z,64.43
2022-11-28T12:49:41.788Z,65.84
2022-11-28T12:54:58.557Z,65.65
2022-11-28T13:00:08.176Z,65.90
2022-11-28T13:05:20.834Z,65.78
2022-11-28T13:10:24.969Z,65.81
2022-11-28T13:15:28.034Z,65.69
2022-11-28T13:20:30.503Z,65.85
2022-11-28T13:25:32.555Z,67.25
2022-11-28T13:30:33.828Z,66.04
2022-11-28T13:35:32.061Z,65.37
2022-11-28T13:40:34.874Z,68.01
2022-11-28T13:45:34.257Z,67.64
2022-11-28T13:50:39.620Z,67.20
2022-11-28T13:55:47.064Z,67.27
2022-11-28T14:00:59.887Z,67.07
2022-11-28T14:05:59.593Z,67.43
2022-11-28T14:11:05.684Z,67.13
2022-11-28T14:16:12.843Z,65.74
2022-11-28T14:21:20.371Z,66.54
2022-11-28T14:26:24.580Z,66.60
2022-11-28T14:31:26.410Z,65.47
2022-11-28T14:36:26.797Z,66.05
2022-11-28T14:41:26.154Z,67.25
2022-11-28T14:46:26.039Z,67.70
2022-11-28T14:52:00.112Z,68.40
2022-11-28T14:57:16.449Z,68.17
2022-11-28T15:02:34.515Z,69.14
2022-11-28T15:07:48.133Z,69.50
2022-11-28T15:12:54.138Z,71.75
2022-11-28T15:17:54.473Z,73.33
2022-11-28T15:22:53.623Z,72.01
2022-11-28T15:27:53.436Z,71.88
2022-11-28T15:32:51.795Z,71.36
2022-11-28T15:37:50.839Z,71.35
2022-11-28T15:42:50.103Z,71.11
2022-11-28T15:47:51.244Z,71.27
2022-11-28T15:52:56.185Z,72.25
2022-11-28T15:58:10.425Z,71.98
2022-11-28T16:03:14.852Z,72.42
2022-11-28T16:08:18.730Z,72.31
2022-11-28T16:13:20.673Z,73.86
2022-11-28T16:18:20.688Z,74.88
2022-11-28T16:23:20.530Z,74.82
2022-11-28T16:28:30.815Z,74.91
2022-11-28T16:33:40.146Z,76.02
2022-11-28T16:38:40.184Z,76.73
2022-11-28T16:43:39.581Z,77.08
2022-11-28T16:48:38.986Z,79.06
2022-11-28T16:53:45.759Z,78.94
2022-11-28T16:58:43.633Z,79.33
2022-11-28T17:03:44.059Z,78.58
2022-11-28T17:08:42.456Z,79.11
2022-11-28T17:13:41.942Z,80.67
2022-11-28T17:18:39.946Z,79.82
2022-11-28T17:23:40.948Z,80.18
2022-11-28T17:28:40.000Z,80.45
2022-11-28T17:33:44.491Z,80.93
2022-11-28T17:38:42.977Z,81.01
2022-11-28T17:43:41.376Z,81.14
2022-11-28T17:48:41.098Z,81.17
2022-11-28T17:53:39.304Z,82.13
2022-11-28T17:58:37.397Z,81.51
2022-11-28T18:03:35.759Z,81.13
2022-11-28T18:08:36.094Z,80.78
2022-11-28T18:13:34.109Z,80.60
2022-11-28T18:18:35.431Z,81.17
2022-11-28T18:23:33.960Z,81.93
2022-11-28T18:28:34.361Z,81.50
2022-11-28T18:33:35.347Z,81.81
2022-11-28T18:38:33.317Z,82.83
2022-11-28T18:43:31.714Z,82.37
2022-11-28T18:48:31.063Z,82.24
2022-11-28T18:53:29.083Z,82.18
2022-11-28T18:58:27.050Z,81.82
2022-11-28T19:03:25.084Z,83.24
2022-11-28T19:08:24.815Z,82.91
2022-11-28T19:13:23.054Z,83.01
2022-11-28T19:18:21.177Z,83.69
2022-11-28T19:23:19.143Z,82.94
2022-11-28T19:28:18.524Z,83.71
2022-11-28T19:33:16.536Z,82.97
2022-11-28T19:38:14.553Z,83.69
2022-11-28T19:43:12.659Z,82.17
2022-11-28T19:48:12.335Z,83.61
2022-11-28T19:53:10.184Z,83.69
2022-11-28T19:58:08.850Z,82.72
2022-11-28T20:03:07.610Z,83.75
2022-11-28T20:08:07.506Z,83.79
2022-11-28T20:13:06.097Z,83.84
2022-11-28T20:18:04.623Z,83.09
2022-11-28T20:23:03.184Z,83.79
2022-11-28T20:28:03.504Z,82.46
2022-11-28T20:33:01.383Z,82.77
2022-11-28T20:38:05.051Z,82.92
2022-11-28T20:43:04.815Z,82.50
2022-11-28T20:48:04.003Z,82.66
2022-11-28T20:53:02.449Z,81.26
2022-11-28T20:58:00.461Z,81.51
2022-11-28T21:02:59.756Z,81.19
2022-11-28T21:07:57.836Z,80.96
2022-11-28T21:12:55.741Z,80.23
2022-11-28T21:17:53.853Z,79.67
2022-11-28T21:22:53.189Z,81.13
2022-11-28T21:27:51.054Z,79.35
2022-11-28T21:32:49.235Z,79.61
2022-11-28T21:37:50.981Z,79.16
2022-11-28T21:42:50.375Z,80.08
2022-11-28T21:47:48.564Z,79.56
2022-11-28T21:52:46.430Z,79.77
2022-11-28T21:57:44.492Z,79.47
2022-11-28T22:02:46.766Z,79.09
2022-11-28T22:07:45.026Z,77.71
2022-11-28T22:12:43.236Z,77.68
2022-11-28T22:17:41.192Z,77.48
2022-11-28T22:22:40.399Z,76.27
2022-11-28T22:27:39.579Z,76.87
2022-11-28T22:32:37.494Z,76.71
2022-11-28T22:37:36.386Z,78.05
2022-11-28T22:42:35.649Z,77.89
2022-11-28T22:47:34.181Z,78.82
2022-11-28T22:52:32.468Z,77.42
2022-11-28T22:57:31.944Z,78.52
2022-11-28T23:02:31.265Z,78.63
2022-11-28T23:07:29.665Z,78.64
2022-11-28T23:12:28.530Z,78.69
2022-11-28T23:17:26.584Z,79.18
2022-11-28T23:22:26.891Z,80.44
2022-11-28T23:27:24.744Z,79.66
2022-11-28T23:32:22.548Z,80.16
2022-11-28T23:37:20.531Z,81.17
2022-11-28T23:42:19.905Z,81.46
2022-11-28T23:47:17.932Z,80.93
2022-11-28T23:52:15.887Z,82.59
2022-11-28T23:57:13.869Z,83.52
